Aeroporto :
LOGIN :

Iscrizione | Disclaimer

   EN    FR    IT 

 










Sommario :    VFR   VFR Marginale   IFR   IFR Intensivo   IFR Molto Intensivo
Visibilità : 
Base nubi : 
>= 8 km
>= 3000ft
5 / 8 km
1000 / 3000 ft
1500m / 5 km
500 / 1000 ft
800 / 1500m
200 / 500 ft
< 800m
< 200 ft
Simboli :   Temporali  Nebbia  Neve Forte  Precipitazioni Forti  Vento > 20 kt
SIGMETs :   Varie  Temporali  Ghiacco  Turbolenza  Onda orograficha  Ceneri Vulcaniche






- Altitudine del aeroporto : 297 ft
- Codice IATA : UIP


LFRQ - Quimper Pluguffan

ULTIMO METAR :
  • 151400Z AUTO 34004KT 9999 BKN029 BKN034 11/04 Q1030 NOSIG

METARs OBSOLETI :
  • 151330Z AUTO 35003KT 300V060 9999 SCT027 BKN150 11/05 Q1030 NOSIG
  • 151300Z AUTO 33005KT 310V020 9999 SCT028 BKN210 11/05 Q1030 NOSIG
  • 151230Z AUTO 34004KT 310V010 CAVOK 11/04 Q1030 NOSIG
  • 151200Z AUTO 34006KT 310V010 CAVOK 10/05 Q1031 NOSIG
  • 151130Z AUTO 34007KT CAVOK 10/05 Q1031 NOSIG

TAF TAF LFRQ
Valido dal 15 a 12 ore il 16 a 12 ore UTC


151100Z 1512/1612 36006KT 9999 SCT030
BECMG 1600/1603 20010KT -RA
BECMG 1606/1609 24012KT 3000 DZRA BKN005



MetMap, La meteo Aeronautica in un colpo d'occhio ! - Copyright ORBIFLY Dicembre 2007 - Disclaimer

ORBIFLY MET'MAP TEAM :

Programmazione e sviluppo : Alexandra Zaïnal
Concezione : Baudouin d'Aumeries
Aiuto per la programmazione : Marc-Olivier Méhu
Supporto tecnico e logistico : Manuel Goepfert
Aiuto per la traduzione : Arnaldo La Scala

Contatto : metmap@orbifly.com




FONTI E CREDITI :

   NOAA